createdAt,value
2018-12-01T00:00:28.440Z,5.70
2018-12-01T00:01:28.418Z,5.77
2018-12-01T00:02:28.383Z,5.82
2018-12-01T00:03:28.367Z,5.66
2018-12-01T00:04:28.335Z,5.64
2018-12-01T00:05:28.314Z,5.57
2018-12-01T00:06:28.297Z,5.55
2018-12-01T00:07:28.265Z,5.57
2018-12-01T00:08:28.239Z,5.67
2018-12-01T00:09:28.217Z,5.71
2018-12-01T00:10:28.202Z,5.68
2018-12-01T00:11:28.179Z,5.77
2018-12-01T00:12:28.150Z,5.82
2018-12-01T00:13:28.124Z,5.75
2018-12-01T00:14:28.099Z,5.70
2018-12-01T00:15:28.082Z,5.59
2018-12-01T00:16:28.060Z,5.64
2018-12-01T00:17:28.036Z,5.55
2018-12-01T00:18:28.010Z,5.46
2018-12-01T00:19:27.981Z,5.34
2018-12-01T00:20:27.965Z,5.34
2018-12-01T00:21:27.939Z,5.28
2018-12-01T00:22:27.910Z,5.25
2018-12-01T00:23:27.891Z,5.32
2018-12-01T00:24:27.869Z,5.37
2018-12-01T00:25:27.851Z,5.56
2018-12-01T00:26:27.824Z,5.59
2018-12-01T00:27:27.795Z,5.64
2018-12-01T00:28:27.773Z,5.63
2018-12-01T00:29:27.745Z,5.59
2018-12-01T00:30:27.729Z,5.55
2018-12-01T00:31:27.703Z,5.59
2018-12-01T00:32:27.677Z,5.48
2018-12-01T00:33:27.650Z,5.48
2018-12-01T00:34:27.630Z,5.41
2018-12-01T00:35:27.602Z,5.52
2018-12-01T00:36:27.576Z,5.50
2018-12-01T00:37:27.553Z,5.66
2018-12-01T00:38:27.535Z,5.67
2018-12-01T00:39:27.506Z,5.68
2018-12-01T00:40:27.483Z,5.60
2018-12-01T00:41:27.464Z,5.57
2018-12-01T00:42:27.436Z,5.60
2018-12-01T00:43:27.978Z,5.68
2018-12-01T00:44:27.395Z,5.88
2018-12-01T00:45:27.363Z,5.86
2018-12-01T00:46:27.342Z,5.88
2018-12-01T00:47:27.321Z,5.86
2018-12-01T00:48:27.293Z,5.85
2018-12-01T00:49:27.273Z,5.70
2018-12-01T00:50:27.247Z,5.63
2018-12-01T00:51:27.222Z,5.46
2018-12-01T00:52:27.206Z,5.38
2018-12-01T00:53:27.173Z,5.28
2018-12-01T00:54:27.150Z,5.27
2018-12-01T00:55:27.133Z,5.14
2018-12-01T00:56:27.099Z,5.07
2018-12-01T00:57:27.083Z,5.09
2018-12-01T00:58:27.054Z,5.09
2018-12-01T00:59:27.030Z,5.14
2018-12-01T01:00:27.007Z,5.04
2018-12-01T01:01:26.982Z,5.01
2018-12-01T01:02:26.969Z,4.95
2018-12-01T01:03:27.865Z,5.14
2018-12-01T01:04:26.918Z,5.30
2018-12-01T01:05:27.363Z,5.32
2018-12-01T01:06:26.867Z,5.67
2018-12-01T01:07:26.840Z,5.70
2018-12-01T01:08:26.824Z,5.60
2018-12-01T01:09:26.792Z,5.45
2018-12-01T01:10:26.777Z,5.41
2018-12-01T01:11:26.746Z,5.28
2018-12-01T01:12:26.729Z,5.17
2018-12-01T01:13:26.699Z,5.10
2018-12-01T01:14:26.677Z,5.14
2018-12-01T01:15:26.653Z,5.28
2018-12-01T01:16:26.625Z,5.43
2018-12-01T01:17:26.603Z,5.77
2018-12-01T01:18:26.589Z,5.81
2018-12-01T01:19:26.561Z,5.57
2018-12-01T01:20:26.539Z,5.52
2018-12-01T01:21:26.510Z,5.92
2018-12-01T01:22:26.490Z,6.04
2018-12-01T01:23:26.465Z,6.25
2018-12-01T01:24:26.442Z,6.21
2018-12-01T01:25:26.414Z,6.07
2018-12-01T01:26:26.395Z,6.03
2018-12-01T01:27:26.372Z,6.04
2018-12-01T01:28:26.347Z,6.16
2018-12-01T01:29:26.327Z,6.19
2018-12-01T01:30:26.296Z,6.29
2018-12-01T01:31:26.270Z,6.63
2018-12-01T01:32:26.247Z,6.81
2018-12-01T01:33:26.231Z,6.80
2018-12-01T01:34:26.199Z,6.86
2018-12-01T01:35:26.184Z,6.99
2018-12-01T01:36:26.161Z,6.99
2018-12-01T01:37:26.129Z,6.94
2018-12-01T01:38:26.109Z,6.97
2018-12-01T01:39:26.084Z,7.01
2018-12-01T01:40:26.064Z,6.94
2018-12-01T01:41:26.035Z,7.01
2018-12-01T01:42:26.012Z,6.95
2018-12-01T01:43:25.989Z,7.09
2018-12-01T01:44:25.969Z,7.20
2018-12-01T01:45:25.948Z,7.31
2018-12-01T01:46:25.920Z,7.26
2018-12-01T01:47:25.897Z,7.31
2018-12-01T01:48:25.878Z,7.31
2018-12-01T01:49:25.850Z,7.31
2018-12-01T01:50:25.832Z,7.16
2018-12-01T01:51:25.812Z,7.23
2018-12-01T01:52:25.780Z,7.08
2018-12-01T01:53:25.760Z,7.19
2018-12-01T01:54:25.738Z,7.23
2018-12-01T01:55:25.713Z,7.27
2018-12-01T01:56:25.696Z,7.26
2018-12-01T01:57:25.670Z,7.23
2018-12-01T01:58:25.643Z,7.20
2018-12-01T01:59:25.620Z,7.31
2018-12-01T02:00:25.601Z,7.23
2018-12-01T02:01:25.591Z,7.24
2018-12-01T02:02:25.554Z,7.26
2018-12-01T02:03:25.537Z,7.37
2018-12-01T02:04:25.512Z,7.29
2018-12-01T02:05:25.489Z,7.23
2018-12-01T02:06:25.463Z,7.23
2018-12-01T02:07:25.438Z,7.22
2018-12-01T02:08:25.422Z,7.23
2018-12-01T02:09:25.396Z,7.35
2018-12-01T02:10:25.374Z,7.27
2018-12-01T02:11:25.345Z,7.26
2018-12-01T02:12:25.323Z,7.23
2018-12-01T02:13:25.297Z,7.16
2018-12-01T02:14:25.278Z,7.09
2018-12-01T02:15:25.876Z,6.98
2018-12-01T02:16:25.232Z,6.91
2018-12-01T02:17:25.209Z,6.97
2018-12-01T02:18:25.190Z,6.87
2018-12-01T02:19:25.171Z,6.89
2018-12-01T02:20:25.139Z,6.84
2018-12-01T02:21:25.122Z,6.76
2018-12-01T02:22:25.097Z,6.69
2018-12-01T02:23:25.074Z,6.80
2018-12-01T02:24:25.046Z,6.72
2018-12-01T02:25:25.035Z,6.83
2018-12-01T02:26:25.008Z,6.83
2018-12-01T02:27:24.984Z,6.79
2018-12-01T02:28:24.964Z,6.84
2018-12-01T02:29:24.935Z,6.84
2018-12-01T02:30:24.920Z,6.77
2018-12-01T02:31:24.898Z,6.80
2018-12-01T02:32:24.869Z,6.76
2018-12-01T02:33:24.843Z,6.84
2018-12-01T02:34:24.855Z,6.90
2018-12-01T02:35:24.791Z,6.89
2018-12-01T02:36:24.775Z,6.89
2018-12-01T02:37:24.755Z,6.95
2018-12-01T02:38:24.726Z,6.91
2018-12-01T02:39:24.710Z,7.13
2018-12-01T02:40:24.688Z,7.09
2018-12-01T02:41:24.662Z,7.15
2018-12-01T02:42:24.641Z,7.23
2018-12-01T02:43:24.619Z,7.29
2018-12-01T02:44:24.587Z,7.34
2018-12-01T02:45:24.568Z,7.19
2018-12-01T02:46:25.390Z,7.16
2018-12-01T02:47:24.519Z,7.09
2018-12-01T02:48:24.501Z,7.08
2018-12-01T02:49:24.476Z,7.08
2018-12-01T02:50:24.454Z,6.98
2018-12-01T02:51:24.426Z,6.89
2018-12-01T02:52:24.403Z,6.81
2018-12-01T02:53:24.382Z,6.84
2018-12-01T02:54:24.362Z,6.72
2018-12-01T02:55:24.337Z,6.80
2018-12-01T02:56:24.311Z,6.68
2018-12-01T02:57:24.289Z,6.66
2018-12-01T02:58:24.897Z,6.59
2018-12-01T02:59:24.246Z,6.61
2018-12-01T03:00:24.220Z,6.61
2018-12-01T03:01:24.198Z,6.63
2018-12-01T03:02:24.172Z,6.68
2018-12-01T03:03:24.150Z,6.76
2018-12-01T03:04:24.127Z,6.86
2018-12-01T03:05:24.105Z,6.76
2018-12-01T03:06:24.082Z,6.68
2018-12-01T03:07:24.894Z,6.69
2018-12-01T03:08:24.038Z,6.71
2018-12-01T03:09:24.013Z,6.68
2018-12-01T03:10:23.999Z,6.73
2018-12-01T03:11:23.970Z,6.76
2018-12-01T03:12:23.942Z,6.71
2018-12-01T03:13:23.919Z,6.69
2018-12-01T03:14:23.904Z,6.76
2018-12-01T03:15:23.881Z,6.80
2018-12-01T03:16:23.855Z,6.90
2018-12-01T03:17:23.829Z,6.87
2018-12-01T03:18:23.804Z,6.79
2018-12-01T03:19:23.788Z,6.84
2018-12-01T03:20:23.763Z,6.59
2018-12-01T03:21:23.740Z,6.65
2018-12-01T03:22:23.710Z,6.71
2018-12-01T03:23:23.692Z,6.81
2018-12-01T03:24:23.667Z,6.80
2018-12-01T03:25:23.646Z,6.72
2018-12-01T03:26:23.617Z,6.66
2018-12-01T03:27:23.601Z,6.59
2018-12-01T03:28:23.569Z,6.43
2018-12-01T03:29:23.558Z,6.44
2018-12-01T03:30:23.538Z,6.63
2018-12-01T03:31:23.523Z,6.43
2018-12-01T03:32:23.480Z,6.59
2018-12-01T03:33:23.454Z,6.76
2018-12-01T03:34:23.436Z,6.65
2018-12-01T03:35:23.410Z,6.63
2018-12-01T03:36:23.387Z,6.62
2018-12-01T03:37:23.364Z,6.59
2018-12-01T03:38:23.346Z,6.59
2018-12-01T03:39:23.315Z,6.58
2018-12-01T03:40:23.288Z,6.62
2018-12-01T03:41:23.265Z,6.54
2018-12-01T03:42:23.897Z,6.50
2018-12-01T03:43:23.225Z,6.58
2018-12-01T03:44:23.202Z,6.65
2018-12-01T03:45:23.173Z,6.65
2018-12-01T03:46:23.151Z,6.81
2018-12-01T03:47:23.126Z,6.89
2018-12-01T03:48:23.103Z,6.91
2018-12-01T03:49:23.084Z,6.97
2018-12-01T03:50:23.057Z,6.99
2018-12-01T03:51:23.035Z,6.95
2018-12-01T03:52:23.059Z,7.01
2018-12-01T03:53:22.987Z,7.09
2018-12-01T03:54:22.969Z,7.07
2018-12-01T03:55:22.938Z,7.08
2018-12-01T03:56:23.408Z,6.95
2018-12-01T03:57:22.892Z,6.86
2018-12-01T03:58:22.872Z,6.81
2018-12-01T03:59:23.406Z,6.86
2018-12-01T04:00:23.411Z,6.91
2018-12-01T04:01:22.803Z,6.94
2018-12-01T04:02:22.778Z,6.80
2018-12-01T04:03:22.752Z,6.99
2018-12-01T04:04:22.727Z,6.99
2018-12-01T04:05:22.701Z,7.01
2018-12-01T04:06:22.685Z,6.98
2018-12-01T04:07:22.663Z,6.84
2018-12-01T04:08:22.631Z,6.95
2018-12-01T04:09:22.609Z,6.95
2018-12-01T04:10:22.587Z,6.97
2018-12-01T04:11:23.414Z,6.97
2018-12-01T04:12:22.539Z,7.01
2018-12-01T04:13:22.516Z,7.02
2018-12-01T04:14:22.494Z,7.08
2018-12-01T04:15:22.482Z,7.13
2018-12-01T04:16:22.446Z,6.95
2018-12-01T04:17:23.407Z,6.98
2018-12-01T04:18:22.947Z,7.01
2018-12-01T04:19:22.378Z,6.91
2018-12-01T04:20:22.359Z,6.86
2018-12-01T04:21:22.330Z,6.83
2018-12-01T04:22:22.308Z,6.83
2018-12-01T04:23:22.287Z,6.87
2018-12-01T04:24:22.262Z,6.87
2018-12-01T04:25:22.235Z,6.86
2018-12-01T04:26:22.213Z,6.83
2018-12-01T04:27:22.190Z,6.68
2018-12-01T04:28:22.171Z,6.66
2018-12-01T04:29:22.914Z,6.68
2018-12-01T04:30:22.127Z,6.53
2018-12-01T04:31:22.109Z,6.46
2018-12-01T04:32:22.071Z,6.40
2018-12-01T04:33:22.055Z,6.53
2018-12-01T04:34:22.026Z,6.47
2018-12-01T04:35:22.003Z,6.50
2018-12-01T04:36:21.978Z,6.50
2018-12-01T04:37:21.956Z,6.48
2018-12-01T04:38:21.942Z,6.56
2018-12-01T04:39:21.914Z,6.46
2018-12-01T04:40:21.889Z,6.33
2018-12-01T04:41:21.866Z,6.36
2018-12-01T04:42:21.840Z,6.32
2018-12-01T04:43:21.822Z,6.36
2018-12-01T04:44:22.419Z,6.32
2018-12-01T04:45:21.778Z,6.25
2018-12-01T04:46:21.753Z,6.14
2018-12-01T04:47:21.734Z,6.07
2018-12-01T04:48:22.421Z,6.06
2018-12-01T04:49:21.678Z,6.07
2018-12-01T04:50:21.654Z,6.07
2018-12-01T04:51:21.628Z,6.03
2018-12-01T04:52:21.609Z,6.03
2018-12-01T04:53:21.583Z,6.22
2018-12-01T04:54:21.564Z,6.22
2018-12-01T04:55:21.535Z,6.25
2018-12-01T04:56:21.513Z,6.40
2018-12-01T04:57:21.501Z,6.50
2018-12-01T04:58:21.465Z,6.40
2018-12-01T04:59:21.442Z,6.46
2018-12-01T05:00:21.424Z,6.50
2018-12-01T05:01:21.394Z,6.40
2018-12-01T05:02:21.373Z,6.46
2018-12-01T05:03:21.353Z,6.56
2018-12-01T05:04:21.330Z,6.56
2018-12-01T05:05:21.304Z,6.38
2018-12-01T05:06:21.279Z,6.38
2018-12-01T05:07:21.260Z,6.33
2018-12-01T05:08:21.239Z,6.26
2018-12-01T05:09:21.217Z,6.03
2018-12-01T05:10:21.189Z,6.07
2018-12-01T05:11:21.162Z,6.16
2018-12-01T05:12:21.140Z,6.32
2018-12-01T05:13:21.114Z,6.22
2018-12-01T05:14:21.098Z,6.35
2018-12-01T05:15:21.069Z,6.36
2018-12-01T05:16:21.048Z,6.36
2018-12-01T05:17:21.023Z,6.41
2018-12-01T05:18:21.007Z,6.46
2018-12-01T05:19:20.978Z,6.47
2018-12-01T05:20:20.952Z,6.50
2018-12-01T05:21:20.936Z,6.47
2018-12-01T05:22:21.481Z,6.48
2018-12-01T05:23:20.882Z,6.43
2018-12-01T05:24:20.860Z,6.38
2018-12-01T05:25:20.840Z,6.44
2018-12-01T05:26:21.427Z,6.30
2018-12-01T05:27:20.790Z,6.32
2018-12-01T05:28:20.770Z,6.22
2018-12-01T05:29:21.425Z,6.06
2018-12-01T05:30:20.719Z,5.98
2018-12-01T05:31:20.704Z,6.00
2018-12-01T05:32:20.671Z,5.91
2018-12-01T05:33:20.652Z,5.88
2018-12-01T05:34:20.623Z,5.82
2018-12-01T05:35:20.601Z,5.91
2018-12-01T05:36:20.575Z,5.73
2018-12-01T05:37:20.555Z,5.67
2018-12-01T05:38:20.530Z,5.59
2018-12-01T05:39:20.512Z,5.46
2018-12-01T05:40:20.485Z,5.40
2018-12-01T05:41:20.460Z,5.31
2018-12-01T05:42:20.930Z,5.35
2018-12-01T05:43:20.423Z,5.23
2018-12-01T05:44:20.390Z,5.16
2018-12-01T05:45:20.365Z,5.34
2018-12-01T05:46:20.345Z,5.25
2018-12-01T05:47:20.320Z,5.25
2018-12-01T05:48:20.298Z,5.22
2018-12-01T05:49:20.275Z,5.04
2018-12-01T05:50:20.244Z,4.99
2018-12-01T05:51:20.229Z,4.95
2018-12-01T05:52:20.197Z,4.94
2018-12-01T05:53:20.174Z,5.01
2018-12-01T05:54:20.152Z,4.91
2018-12-01T05:55:20.126Z,5.04
2018-12-01T05:56:20.108Z,5.05
2018-12-01T05:57:20.082Z,5.12
2018-12-01T05:58:20.936Z,5.27
2018-12-01T05:59:20.032Z,5.25
2018-12-01T06:00:20.010Z,5.14
2018-12-01T06:01:19.985Z,5.16
2018-12-01T06:02:19.965Z,5.10
2018-12-01T06:03:19.943Z,5.19
2018-12-01T06:04:19.917Z,5.13
2018-12-01T06:05:19.886Z,5.16
2018-12-01T06:06:19.862Z,5.05
2018-12-01T06:07:19.841Z,5.17
2018-12-01T06:08:19.822Z,5.04
2018-12-01T06:09:19.801Z,5.17
2018-12-01T06:10:20.439Z,5.20
2018-12-01T06:11:19.752Z,5.34
2018-12-01T06:12:19.720Z,5.41
2018-12-01T06:13:19.698Z,5.43
2018-12-01T06:14:19.675Z,5.38
2018-12-01T06:15:19.655Z,5.43
2018-12-01T06:16:19.626Z,5.55
2018-12-01T06:17:19.607Z,5.75
2018-12-01T06:18:19.578Z,5.68
2018-12-01T06:19:19.557Z,5.60
2018-12-01T06:20:19.530Z,5.46
2018-12-01T06:21:19.511Z,5.37
2018-12-01T06:22:19.486Z,5.31
2018-12-01T06:23:19.467Z,5.43
2018-12-01T06:24:19.437Z,5.38
2018-12-01T06:25:19.943Z,5.41
2018-12-01T06:26:19.392Z,5.32
2018-12-01T06:27:19.367Z,5.38
2018-12-01T06:28:19.341Z,5.46
2018-12-01T06:29:19.327Z,5.56
2018-12-01T06:30:19.306Z,5.82
2018-12-01T06:31:19.277Z,5.85
2018-12-01T06:32:19.248Z,5.83
2018-12-01T06:33:19.222Z,5.74
2018-12-01T06:34:19.206Z,5.78
2018-12-01T06:35:19.184Z,5.66
2018-12-01T06:36:19.159Z,5.74
2018-12-01T06:37:19.139Z,5.83
2018-12-01T06:38:19.109Z,5.89
2018-12-01T06:39:19.082Z,5.85
2018-12-01T06:40:19.061Z,6.01
2018-12-01T06:41:19.033Z,5.98
2018-12-01T06:42:19.017Z,5.98
2018-12-01T06:43:19.948Z,6.00
2018-12-01T06:44:18.973Z,6.07
2018-12-01T06:45:18.947Z,6.03
2018-12-01T06:46:18.918Z,6.04
2018-12-01T06:47:18.900Z,6.16
2018-12-01T06:48:18.874Z,6.28
2018-12-01T06:49:18.850Z,6.44
2018-12-01T06:50:18.824Z,6.47
2018-12-01T06:51:18.808Z,6.33
2018-12-01T06:52:18.783Z,6.36
2018-12-01T06:53:18.755Z,6.36
2018-12-01T06:54:19.450Z,6.30
2018-12-01T06:55:18.712Z,6.32
2018-12-01T06:56:18.689Z,6.32
2018-12-01T06:57:18.658Z,6.40
2018-12-01T06:58:18.642Z,6.47
2018-12-01T06:59:18.626Z,6.65
2018-12-01T07:00:18.592Z,6.69
2018-12-01T07:01:18.566Z,6.94
2018-12-01T07:02:18.550Z,6.90
2018-12-01T07:03:18.529Z,6.95
2018-12-01T07:04:18.501Z,7.05
2018-12-01T07:05:18.485Z,6.99
2018-12-01T07:06:18.451Z,7.07
2018-12-01T07:07:18.435Z,7.04
2018-12-01T07:08:18.410Z,7.09
2018-12-01T07:09:18.381Z,7.19
2018-12-01T07:10:18.361Z,7.29
2018-12-01T07:11:18.955Z,7.26
2018-12-01T07:12:18.315Z,7.24
2018-12-01T07:13:18.291Z,7.34
2018-12-01T07:14:18.944Z,7.32
2018-12-01T07:15:18.250Z,7.35
2018-12-01T07:16:18.218Z,7.31
2018-12-01T07:17:18.201Z,7.31
2018-12-01T07:18:18.172Z,7.29
2018-12-01T07:19:18.150Z,7.26
2018-12-01T07:20:18.128Z,7.23
2018-12-01T07:21:18.109Z,7.27
2018-12-01T07:22:18.086Z,7.23
2018-12-01T07:23:18.060Z,7.29
2018-12-01T07:24:18.038Z,7.41
2018-12-01T07:25:18.016Z,7.44
2018-12-01T07:26:17.988Z,7.47
2018-12-01T07:27:17.972Z,7.52
2018-12-01T07:28:17.950Z,7.66
2018-12-01T07:29:17.923Z,7.58
2018-12-01T07:30:17.895Z,7.63
2018-12-01T07:31:17.873Z,7.66
2018-12-01T07:32:17.851Z,7.72
2018-12-01T07:33:17.837Z,7.84
2018-12-01T07:34:17.812Z,7.74
2018-12-01T07:35:17.791Z,7.72
2018-12-01T07:36:17.759Z,7.89
2018-12-01T07:37:17.743Z,7.72
2018-12-01T07:38:17.714Z,7.71
2018-12-01T07:39:17.694Z,7.77
2018-12-01T07:40:18.456Z,7.69
2018-12-01T07:41:17.646Z,7.74
2018-12-01T07:42:17.623Z,7.74
2018-12-01T07:43:18.457Z,7.84
2018-12-01T07:44:17.582Z,7.87
2018-12-01T07:45:17.556Z,7.82
2018-12-01T07:46:17.540Z,7.79
2018-12-01T07:47:17.511Z,7.75
2018-12-01T07:48:17.492Z,7.90
2018-12-01T07:49:17.470Z,7.92
2018-12-01T07:50:17.455Z,7.97
2018-12-01T07:51:17.423Z,7.97
2018-12-01T07:52:17.397Z,7.92
2018-12-01T07:53:17.592Z,7.93
2018-12-01T07:54:17.360Z,7.96
2018-12-01T07:55:17.339Z,8.00
2018-12-01T07:56:17.308Z,8.03
2018-12-01T07:57:17.963Z,8.00
2018-12-01T07:58:17.273Z,8.07
2018-12-01T07:59:17.247Z,8.03
2018-12-01T08:00:17.218Z,8.12
2018-12-01T08:01:17.200Z,8.10
2018-12-01T08:02:17.180Z,8.18
2018-12-01T08:03:17.151Z,8.28
2018-12-01T08:04:17.127Z,8.30
2018-12-01T08:05:17.106Z,8.29
2018-12-01T08:06:17.960Z,8.47
2018-12-01T08:07:17.061Z,8.42
2018-12-01T08:08:17.042Z,8.54
2018-12-01T08:09:17.019Z,8.58
2018-12-01T08:10:16.991Z,8.44
2018-12-01T08:11:17.468Z,8.62
2018-12-01T08:12:16.946Z,8.50
2018-12-01T08:13:16.923Z,8.33
2018-12-01T08:14:16.900Z,8.39
2018-12-01T08:15:16.878Z,8.29
2018-12-01T08:16:16.862Z,8.29
2018-12-01T08:17:16.901Z,8.26
2018-12-01T08:18:16.816Z,8.14
2018-12-01T08:19:16.789Z,8.20
2018-12-01T08:20:16.773Z,8.12
2018-12-01T08:21:16.744Z,8.14
2018-12-01T08:22:16.725Z,8.21
2018-12-01T08:23:16.701Z,8.22
2018-12-01T08:24:16.677Z,8.28
2018-12-01T08:25:16.664Z,8.22
2018-12-01T08:26:16.632Z,8.28
2018-12-01T08:27:16.619Z,8.25
2018-12-01T08:28:16.593Z,8.25
2018-12-01T08:29:16.565Z,8.22
2018-12-01T08:30:17.480Z,8.22
2018-12-01T08:31:16.523Z,8.25
2018-12-01T08:32:16.501Z,8.11
2018-12-01T08:33:16.481Z,8.12
2018-12-01T08:34:16.462Z,8.11
2018-12-01T08:35:16.434Z,8.11
2018-12-01T08:36:16.413Z,8.28
2018-12-01T08:37:16.387Z,8.25
2018-12-01T08:38:16.371Z,8.22
2018-12-01T08:39:16.968Z,8.28
2018-12-01T08:40:16.326Z,8.37
2018-12-01T08:41:16.300Z,8.29
2018-12-01T08:42:16.276Z,8.29
2018-12-01T08:43:16.263Z,8.39
2018-12-01T08:44:16.969Z,8.47
2018-12-01T08:45:16.216Z,8.44
2018-12-01T08:46:16.188Z,8.44
2018-12-01T08:47:16.171Z,8.36
2018-12-01T08:48:16.145Z,8.33
2018-12-01T08:49:16.126Z,8.39
2018-12-01T08:50:16.093Z,8.39
2018-12-01T08:51:16.084Z,8.50
2018-12-01T08:52:16.049Z,8.63
2018-12-01T08:53:16.037Z,8.58
2018-12-01T08:54:16.008Z,8.68
2018-12-01T08:55:15.992Z,8.88
2018-12-01T08:56:15.963Z,9.01
2018-12-01T08:57:16.479Z,9.12
2018-12-01T08:58:15.925Z,9.01
2018-12-01T08:59:15.902Z,9.12
2018-12-01T09:00:15.872Z,9.13
2018-12-01T09:01:15.854Z,9.28
2018-12-01T09:02:15.829Z,9.56
2018-12-01T09:03:15.806Z,9.73
2018-12-01T09:04:15.781Z,9.40
2018-12-01T09:05:15.771Z,9.45
2018-12-01T09:06:15.739Z,9.40
2018-12-01T09:07:15.717Z,9.34
2018-12-01T09:08:15.698Z,9.49
2018-12-01T09:09:15.675Z,9.34
2018-12-01T09:10:15.654Z,9.53
2018-12-01T09:11:15.635Z,9.32
2018-12-01T09:12:15.613Z,9.25
2018-12-01T09:13:15.595Z,9.25
2018-12-01T09:14:15.564Z,9.25
2018-12-01T09:15:15.542Z,9.21
2018-12-01T09:16:15.522Z,9.39
2018-12-01T09:17:15.500Z,9.40
2018-12-01T09:18:15.478Z,9.40
2018-12-01T09:19:15.456Z,9.46
2018-12-01T09:20:15.434Z,9.57
2018-12-01T09:21:15.418Z,9.60
2018-12-01T09:22:15.395Z,9.71
2018-12-01T09:23:15.370Z,9.93
2018-12-01T09:24:15.348Z,10.25
2018-12-01T09:25:15.332Z,10.24
2018-12-01T09:26:15.309Z,10.55
2018-12-01T09:27:15.292Z,10.80
2018-12-01T09:28:16.033Z,11.14
2018-12-01T09:29:15.245Z,11.20
2018-12-01T09:30:15.225Z,10.92
2018-12-01T09:31:15.209Z,10.86
2018-12-01T09:32:15.187Z,10.47
2018-12-01T09:33:15.164Z,10.51
2018-12-01T09:34:15.139Z,10.33
2018-12-01T09:35:15.124Z,10.24
2018-12-01T09:36:15.100Z,10.19
2018-12-01T09:37:15.084Z,10.26
2018-12-01T09:38:15.057Z,10.09
2018-12-01T09:39:15.038Z,10.03
2018-12-01T09:40:15.017Z,10.06
2018-12-01T09:41:14.999Z,10.30
2018-12-01T09:42:14.977Z,10.51
2018-12-01T09:43:14.954Z,10.86
2018-12-01T09:44:14.942Z,11.21
2018-12-01T09:45:14.922Z,11.35
2018-12-01T09:46:14.900Z,11.57
2018-12-01T09:47:14.881Z,11.72
2018-12-01T09:48:14.854Z,12.11
2018-12-01T09:49:14.834Z,12.21
2018-12-01T09:50:14.813Z,12.48
2018-12-01T09:51:14.801Z,12.64
2018-12-01T09:52:14.775Z,12.52
2018-12-01T09:53:14.755Z,11.85
2018-12-01T09:54:14.743Z,11.32
2018-12-01T09:55:14.717Z,11.03
2018-12-01T09:56:14.698Z,10.83
2018-12-01T09:57:14.681Z,10.80
2018-12-01T09:58:14.660Z,10.77
2018-12-01T09:59:14.643Z,10.63
2018-12-01T10:00:14.627Z,10.60
2018-12-01T10:01:14.604Z,10.52
2018-12-01T10:02:14.578Z,10.28
2018-12-01T10:03:14.564Z,10.24
2018-12-01T10:04:14.540Z,10.22
2018-12-01T10:05:14.527Z,10.21
2018-12-01T10:06:14.511Z,10.18
2018-12-01T10:07:14.488Z,10.09
2018-12-01T10:08:14.463Z,10.09
2018-12-01T10:09:14.444Z,10.04
2018-12-01T10:10:14.427Z,10.18
2018-12-01T10:11:14.409Z,10.12
2018-12-01T10:12:14.387Z,10.10
2018-12-01T10:13:14.996Z,10.12
2018-12-01T10:14:14.348Z,10.12
2018-12-01T10:15:14.322Z,10.07
2018-12-01T10:16:14.303Z,10.12
2018-12-01T10:17:14.285Z,10.15
2018-12-01T10:18:14.268Z,10.24
2018-12-01T10:19:14.242Z,10.09
2018-12-01T10:20:14.232Z,10.12
2018-12-01T10:21:14.201Z,10.15
2018-12-01T10:22:14.188Z,10.15
2018-12-01T10:23:14.169Z,10.12
2018-12-01T10:24:14.149Z,10.18
2018-12-01T10:25:14.133Z,10.33
2018-12-01T10:26:14.101Z,10.40
2018-12-01T10:27:14.082Z,10.43
2018-12-01T10:28:14.064Z,10.71
2018-12-01T10:29:14.048Z,10.55
2018-12-01T10:30:14.029Z,10.42
2018-12-01T10:31:14.010Z,10.25
2018-12-01T10:32:13.987Z,10.32
2018-12-01T10:33:13.968Z,10.24
2018-12-01T10:34:14.505Z,10.44
2018-12-01T10:35:13.932Z,10.55
2018-12-01T10:36:13.908Z,10.62
2018-12-01T10:37:14.505Z,11.09
2018-12-01T10:38:13.867Z,11.27
2018-12-01T10:39:13.845Z,11.41
2018-12-01T10:40:13.832Z,11.24
2018-12-01T10:41:13.806Z,11.31
2018-12-01T10:42:13.794Z,11.31
2018-12-01T10:43:13.768Z,11.75
2018-12-01T10:44:13.748Z,11.67
2018-12-01T10:45:13.729Z,11.86
2018-12-01T10:46:13.710Z,11.77
2018-12-01T10:47:13.692Z,11.56
2018-12-01T10:48:13.668Z,11.35
2018-12-01T10:49:13.650Z,11.47
2018-12-01T10:50:13.627Z,11.10
2018-12-01T10:51:13.612Z,10.94
2018-12-01T10:52:13.873Z,10.96
2018-12-01T10:53:13.570Z,11.16
2018-12-01T10:54:13.554Z,11.31
2018-12-01T10:55:13.528Z,11.21
2018-12-01T10:56:13.515Z,11.31
2018-12-01T10:57:13.496Z,11.47
2018-12-01T10:58:13.480Z,11.87
2018-12-01T10:59:13.461Z,11.96
2018-12-01T11:00:13.438Z,11.86
2018-12-01T11:01:13.420Z,11.70
2018-12-01T11:02:13.400Z,11.87
2018-12-01T11:03:13.391Z,12.15
2018-12-01T11:04:13.372Z,12.15
2018-12-01T11:05:13.345Z,12.49
2018-12-01T11:06:13.334Z,12.45
2018-12-01T11:07:13.325Z,11.97
2018-12-01T11:08:13.301Z,12.13
2018-12-01T11:09:13.282Z,12.13
2018-12-01T11:10:13.263Z,12.12
2018-12-01T11:11:13.245Z,12.16
2018-12-01T11:12:14.022Z,11.97
2018-12-01T11:13:13.209Z,11.96
2018-12-01T11:14:13.216Z,11.78
2018-12-01T11:15:13.178Z,11.50
2018-12-01T11:16:13.168Z,11.28
2018-12-01T11:17:13.146Z,11.11
2018-12-01T11:18:13.123Z,11.07
2018-12-01T11:19:13.110Z,10.92
2018-12-01T11:20:13.091Z,10.81
2018-12-01T11:21:13.073Z,10.92
2018-12-01T11:22:13.058Z,11.03
2018-12-01T11:23:13.038Z,11.16
2018-12-01T11:24:13.018Z,10.92
2018-12-01T11:25:13.005Z,10.98
2018-12-01T11:26:12.986Z,10.86
2018-12-01T11:27:12.964Z,10.77
2018-12-01T11:28:12.945Z,10.60
2018-12-01T11:29:12.925Z,10.52
2018-12-01T11:30:12.913Z,10.46
2018-12-01T11:31:12.893Z,10.42
2018-12-01T11:32:12.884Z,10.33
2018-12-01T11:33:12.858Z,10.30
2018-12-01T11:34:12.900Z,10.32
2018-12-01T11:35:12.828Z,10.21
2018-12-01T11:36:12.819Z,10.25
2018-12-01T11:37:12.784Z,10.24
2018-12-01T11:38:12.796Z,10.17
2018-12-01T11:39:13.529Z,10.24
2018-12-01T11:40:13.528Z,10.19
2018-12-01T11:41:12.700Z,10.18
2018-12-01T11:42:12.687Z,10.18
2018-12-01T11:43:12.660Z,10.21
2018-12-01T11:44:12.637Z,10.37
2018-12-01T11:45:12.625Z,10.34
2018-12-01T11:46:13.525Z,10.36
2018-12-01T11:47:12.580Z,10.47
2018-12-01T11:48:12.561Z,10.47
2018-12-01T11:49:12.539Z,10.55
2018-12-01T11:50:12.526Z,10.56
2018-12-01T11:51:12.503Z,10.59
2018-12-01T11:52:12.484Z,10.51
2018-12-01T11:53:12.465Z,10.60
2018-12-01T11:54:12.435Z,10.55
2018-12-01T11:55:12.419Z,10.60
2018-12-01T11:56:12.413Z,10.74
2018-12-01T11:57:12.381Z,10.83
2018-12-01T11:58:12.361Z,10.83
2018-12-01T11:59:12.346Z,10.92
2018-12-01T12:00:12.320Z,10.95
2018-12-01T12:01:12.330Z,10.83
2018-12-01T12:02:12.285Z,10.71
2018-12-01T12:03:12.266Z,10.86
2018-12-01T12:04:12.252Z,10.94
2018-12-01T12:05:12.224Z,10.86
2018-12-01T12:06:12.197Z,10.80
2018-12-01T12:07:12.188Z,10.81
2018-12-01T12:08:13.061Z,10.78
2018-12-01T12:09:12.140Z,10.84
2018-12-01T12:10:12.131Z,10.78
2018-12-01T12:11:12.121Z,10.65
2018-12-01T12:12:12.086Z,10.65
2018-12-01T12:13:12.070Z,10.66
2018-12-01T12:14:12.048Z,10.53
2018-12-01T12:15:12.028Z,10.68
2018-12-01T12:16:12.006Z,10.74
2018-12-01T12:17:11.989Z,10.80
2018-12-01T12:18:11.981Z,10.78
2018-12-01T12:19:11.955Z,10.83
2018-12-01T12:20:11.939Z,10.92
2018-12-01T12:21:11.923Z,10.99
2018-12-01T12:22:11.899Z,11.02
2018-12-01T12:23:11.907Z,11.02
2018-12-01T12:24:11.852Z,10.99
2018-12-01T12:25:11.836Z,10.99
2018-12-01T12:26:11.812Z,11.07
2018-12-01T12:27:11.796Z,11.21
2018-12-01T12:28:11.773Z,11.24
2018-12-01T12:29:11.785Z,11.20
2018-12-01T12:30:11.737Z,11.13
2018-12-01T12:31:12.565Z,11.29
2018-12-01T12:32:12.571Z,11.34
2018-12-01T12:33:11.692Z,11.21
2018-12-01T12:34:11.663Z,11.32
2018-12-01T12:35:11.646Z,11.35
2018-12-01T12:36:11.627Z,11.36
2018-12-01T12:37:11.601Z,11.34
2018-12-01T12:38:11.592Z,11.32
2018-12-01T12:39:11.569Z,11.25
2018-12-01T12:40:11.543Z,11.28
2018-12-01T12:41:11.527Z,11.25
2018-12-01T12:42:11.515Z,11.13
2018-12-01T12:43:12.064Z,11.11
2018-12-01T12:44:11.479Z,11.07
2018-12-01T12:45:11.455Z,11.14
2018-12-01T12:46:11.442Z,11.27
2018-12-01T12:47:11.426Z,11.13
2018-12-01T12:48:11.417Z,11.19
2018-12-01T12:49:11.387Z,11.10
2018-12-01T12:50:11.368Z,11.03
2018-12-01T12:51:11.350Z,11.09
2018-12-01T12:52:11.388Z,11.03
2018-12-01T12:53:11.342Z,11.01
2018-12-01T12:54:11.394Z,11.09
2018-12-01T12:55:11.292Z,10.98
2018-12-01T12:56:11.266Z,10.98
2018-12-01T12:57:11.271Z,10.99
2018-12-01T12:58:11.228Z,10.96
2018-12-01T12:59:11.218Z,10.94
2018-12-01T13:00:11.225Z,10.80
2018-12-01T13:01:11.170Z,10.80
2018-12-01T13:02:11.142Z,10.83
2018-12-01T13:03:11.125Z,10.83
2018-12-01T13:04:11.101Z,10.80
2018-12-01T13:05:11.097Z,10.73
2018-12-01T13:06:11.643Z,10.66
2018-12-01T13:07:11.052Z,10.60
2018-12-01T13:08:11.043Z,10.53
2018-12-01T13:09:11.081Z,10.55
2018-12-01T13:10:10.992Z,10.53